Time;durP1;ratioP1;P1;durP2;ratioP2;P2;SDS_P1;SDS_P2;PMS_P1;PMS_P2;Temp;Humidity;BMP_temperature;BMP_pressure;BME280_temperature;BME280_humidity;BME280_pressure;Samples;Min_cycle;Max_cycle;Signal;HPM_P1;HPM_P2
2021/07/18 00:02:15;;;;;;;8.70;4.38;;;18.40;99.90;;;;;;4991563;28;20167;-69
2021/07/18 00:04:42;;;;;;;5.40;4.50;;;18.40;99.90;;;;;;4992201;28;20073;-68
2021/07/18 00:07:09;;;;;;;5.65;3.85;;;18.40;99.90;;;;;;4991664;28;20046;-68
2021/07/18 00:09:36;;;;;;;6.18;3.95;;;18.40;99.90;;;;;;4991678;28;20422;-69
2021/07/18 00:12:02;;;;;;;10.80;4.47;;;18.40;99.90;;;;;;4991891;28;20050;-69
2021/07/18 00:14:30;;;;;;;6.70;4.32;;;18.30;99.90;;;;;;4992032;28;20050;-69
2021/07/18 00:16:57;;;;;;;7.30;4.05;;;18.30;99.90;;;;;;4991967;28;20104;-68
2021/07/18 00:19:23;;;;;;;7.05;4.32;;;18.30;99.90;;;;;;4991340;28;20046;-67
2021/07/18 00:21:50;;;;;;;8.75;3.58;;;18.20;99.90;;;;;;4991800;28;20101;-69
2021/07/18 00:24:16;;;;;;;4.80;3.30;;;18.20;99.90;;;;;;4991965;28;20046;-69
2021/07/18 00:26:43;;;;;;;7.15;3.63;;;18.20;99.90;;;;;;4991866;28;20050;-69
2021/07/18 00:29:09;;;;;;;4.00;3.55;;;18.20;99.90;;;;;;4990846;28;20481;-70
2021/07/18 00:31:37;;;;;;;6.65;4.03;;;18.10;99.90;;;;;;4991650;28;20096;-71
2021/07/18 00:34:04;;;;;;;8.32;3.47;;;18.10;99.90;;;;;;4991647;28;20042;-72
2021/07/18 00:36:31;;;;;;;5.55;4.00;;;18.10;99.90;;;;;;4991437;28;20116;-70
2021/07/18 00:38:57;;;;;;;5.15;3.30;;;18.10;99.90;;;;;;4991371;28;20046;-69
2021/07/18 00:41:24;;;;;;;4.60;3.10;;;18.00;99.90;;;;;;4991897;28;20102;-68
2021/07/18 00:43:50;;;;;;;9.05;4.93;;;18.00;99.90;;;;;;4991690;28;20051;-69
2021/07/18 00:46:17;;;;;;;5.43;3.40;;;18.00;99.90;;;;;;4991617;28;20050;-72
2021/07/18 00:48:45;;;;;;;4.38;3.42;;;18.00;99.90;;;;;;4990637;28;20050;-68
2021/07/18 00:51:11;;;;;;;4.57;3.08;;;18.00;99.90;;;;;;4991950;28;20105;-70
2021/07/18 00:53:38;;;;;;;6.65;3.95;;;18.00;99.90;;;;;;4991411;28;20043;-69
2021/07/18 00:56:05;;;;;;;4.38;3.03;;;18.00;99.90;;;;;;4991720;28;20100;-69
2021/07/18 00:58:34;;;;;;;4.43;2.97;;;17.90;99.90;;;;;;4990831;28;20046;-71
2021/07/18 01:01:01;;;;;;;5.35;3.42;;;17.80;99.90;;;;;;4991466;28;20042;-68
2021/07/18 01:03:28;;;;;;;3.58;2.83;;;17.80;99.90;;;;;;4993375;28;20097;-68
2021/07/18 01:05:56;;;;;;;4.00;3.47;;;17.80;99.90;;;;;;4994998;28;20038;-70
2021/07/18 01:08:23;;;;;;;6.60;3.45;;;17.90;99.90;;;;;;4993229;28;20042;-69
2021/07/18 01:10:50;;;;;;;5.55;2.80;;;17.90;99.90;;;;;;4995269;28;20394;-69
2021/07/18 01:13:16;;;;;;;7.80;3.17;;;17.90;99.90;;;;;;4975579;28;20047;-68
2021/07/18 01:15:43;;;;;;;10.68;3.47;;;17.90;99.90;;;;;;4976471;28;20483;-67
2021/07/18 01:18:11;;;;;;;5.13;3.60;;;17.90;99.90;;;;;;4994337;28;20529;-67
2021/07/18 01:20:39;;;;;;;6.55;2.85;;;17.90;99.90;;;;;;4994365;28;20077;-69
2021/07/18 01:23:07;;;;;;;5.45;3.22;;;17.80;99.90;;;;;;4994325;28;20046;-70
2021/07/18 01:25:35;;;;;;;4.35;2.97;;;17.80;99.90;;;;;;4994405;28;20104;-69
2021/07/18 01:28:04;;;;;;;6.05;2.92;;;17.80;99.90;;;;;;4994689;28;20082;-68
2021/07/18 01:30:31;;;;;;;5.53;3.55;;;17.70;99.90;;;;;;4993545;28;20054;-69
2021/07/18 01:32:58;;;;;;;3.10;2.63;;;17.70;99.90;;;;;;4994733;28;20042;-69
2021/07/18 01:35:24;;;;;;;2.60;2.33;;;17.70;99.90;;;;;;4994433;28;20046;-67
2021/07/18 01:37:51;;;;;;;6.75;4.07;;;17.60;99.90;;;;;;4994410;28;20050;-67
2021/07/18 01:40:19;;;;;;;7.80;3.75;;;17.50;99.90;;;;;;4993731;28;20097;-69
2021/07/18 01:42:46;;;;;;;5.05;2.45;;;17.50;99.90;;;;;;4994206;28;20136;-69
2021/07/18 01:45:12;;;;;;;3.50;3.08;;;17.50;99.90;;;;;;4994262;28;20046;-68
2021/07/18 01:47:40;;;;;;;7.05;3.47;;;17.50;99.90;;;;;;4994071;28;20108;-68
2021/07/18 01:50:08;;;;;;;7.53;3.53;;;17.40;99.90;;;;;;4993551;28;20081;-68
2021/07/18 01:52:35;;;;;;;6.25;3.42;;;17.40;99.90;;;;;;4994153;28;20396;-69
2021/07/18 01:55:01;;;;;;;6.68;2.88;;;17.30;99.90;;;;;;4994244;28;20058;-69
2021/07/18 01:57:29;;;;;;;3.92;2.80;;;17.30;99.90;;;;;;4993621;28;20077;-70
2021/07/18 01:59:56;;;;;;;3.90;3.42;;;17.30;99.90;;;;;;4993541;28;20085;-68
2021/07/18 02:02:23;;;;;;;4.18;2.90;;;17.30;99.90;;;;;;4993953;28;20046;-71
2021/07/18 02:04:49;;;;;;;5.18;2.97;;;17.30;99.90;;;;;;4993779;28;20042;-69
2021/07/18 02:07:17;;;;;;;5.10;3.10;;;17.30;99.90;;;;;;4993839;28;20050;-67
2021/07/18 02:09:44;;;;;;;5.28;2.53;;;17.20;99.90;;;;;;4993247;28;20501;-67
2021/07/18 02:12:11;;;;;;;7.90;2.85;;;17.20;99.90;;;;;;4993510;28;20490;-67
2021/07/18 02:14:41;;;;;;;10.30;3.80;;;17.20;99.90;;;;;;4992933;28;20097;-68
2021/07/18 02:17:08;;;;;;;8.10;3.08;;;17.10;99.90;;;;;;4993502;28;20062;-69
2021/07/18 02:19:35;;;;;;;6.47;3.00;;;17.10;99.90;;;;;;4992843;28;20058;-68
2021/07/18 02:22:02;;;;;;;9.27;3.42;;;17.00;99.90;;;;;;4993743;28;20092;-68
2021/07/18 02:24:29;;;;;;;6.60;3.28;;;17.10;99.90;;;;;;4993185;28;20038;-69
2021/07/18 02:26:56;;;;;;;5.63;3.15;;;17.10;99.90;;;;;;4993548;28;20074;-68
2021/07/18 02:29:23;;;;;;;5.80;3.10;;;17.10;99.90;;;;;;4992805;28;20100;-68
2021/07/18 02:31:51;;;;;;;5.40;3.10;;;17.10;99.90;;;;;;4993430;28;20046;-68
2021/07/18 02:34:18;;;;;;;4.70;2.90;;;17.10;99.90;;;;;;4993524;28;20054;-69
2021/07/18 02:36:44;;;;;;;5.43;3.33;;;17.10;99.90;;;;;;4993080;28;20498;-67
2021/07/18 02:39:11;;;;;;;7.15;3.78;;;17.10;99.90;;;;;;4992682;28;20042;-70
2021/07/18 02:41:38;;;;;;;9.98;6.40;;;17.00;99.90;;;;;;4993218;28;20482;-69
2021/07/18 02:44:05;;;;;;;26.95;14.07;;;17.00;99.90;;;;;;4993314;28;20050;-68
2021/07/18 02:46:32;;;;;;;13.65;7.03;;;17.00;99.90;;;;;;4993482;28;20100;-69
2021/07/18 02:49:00;;;;;;;12.07;6.03;;;17.00;99.90;;;;;;4992456;28;20422;-68
2021/07/18 02:51:27;;;;;;;28.13;14.65;;;16.90;99.90;;;;;;4992941;28;20387;-69
2021/07/18 02:53:54;;;;;;;9.10;5.68;;;16.80;99.90;;;;;;4996682;28;20042;-76
2021/07/18 02:56:21;;;;;;;16.40;9.00;;;16.80;99.90;;;;;;5013489;28;20102;-75
2021/07/18 02:58:48;;;;;;;6.45;2.72;;;16.80;99.90;;;;;;5008598;28;20050;-79
2021/07/18 03:01:14;;;;;;;5.18;4.00;;;16.80;99.90;;;;;;4996625;28;20054;-77
2021/07/18 03:03:41;;;;;;;7.20;4.00;;;16.80;99.90;;;;;;4997469;28;20046;-78
2021/07/18 03:06:09;;;;;;;22.25;11.25;;;16.80;99.90;;;;;;5001495;28;20073;-81
2021/07/18 03:08:38;;;;;;;9.52;4.22;;;16.80;99.90;;;;;;5013241;28;20050;-90
2021/07/18 03:11:05;;;;;;;7.22;3.55;;;16.80;99.90;;;;;;5017361;28;20036;-86
2021/07/18 03:13:36;;;;;;;8.02;4.35;;;16.80;99.90;;;;;;5015730;28;20034;-83
2021/07/18 03:16:03;;;;;;;11.40;5.47;;;16.80;99.90;;;;;;5017486;28;20205;-85
2021/07/18 03:18:30;;;;;;;18.98;11.18;;;16.80;99.90;;;;;;5016011;28;20041;-77
2021/07/18 03:20:56;;;;;;;8.20;4.95;;;16.80;99.90;;;;;;5009027;28;20046;-80
2021/07/18 03:23:41;;;;;;;7.55;3.75;;;16.70;99.90;;;;;;5005567;28;20116;-80
2021/07/18 03:26:08;;;;;;;19.88;10.95;;;16.70;99.90;;;;;;5001460;28;20430;-80
2021/07/18 03:31:22;;;;;;;10.57;4.63;;;16.70;99.90;;;;;;5009463;28;20046;-81
2021/07/18 03:33:48;;;;;;;50.38;27.65;;;16.70;99.90;;;;;;5007488;28;20047;-82
2021/07/18 03:38:57;;;;;;;9.35;6.25;;;16.80;99.90;;;;;;5005257;28;20081;-78
2021/07/18 03:41:25;;;;;;;8.75;6.25;;;16.80;99.90;;;;;;5004003;28;20050;-78
2021/07/18 03:43:52;;;;;;;9.70;6.15;;;16.90;99.90;;;;;;4995200;28;20050;-78
2021/07/18 03:46:19;;;;;;;6.43;4.80;;;16.90;99.90;;;;;;4997252;28;20077;-79
2021/07/18 03:48:45;;;;;;;12.05;6.97;;;16.90;99.90;;;;;;4995841;28;20054;-80
2021/07/18 03:51:12;;;;;;;30.23;18.08;;;16.90;99.90;;;;;;4996663;28;20050;-79
2021/07/18 03:53:39;;;;;;;24.73;14.60;;;16.90;99.90;;;;;;4996334;28;20050;-80
2021/07/18 03:56:07;;;;;;;10.52;7.00;;;17.00;99.90;;;;;;4996008;28;20495;-80
2021/07/18 03:58:33;;;;;;;21.67;11.38;;;17.00;99.90;;;;;;4995638;28;20134;-78
2021/07/18 04:01:00;;;;;;;24.50;14.07;;;17.00;99.90;;;;;;4994490;28;20089;-79
2021/07/18 04:03:27;;;;;;;7.25;4.88;;;17.10;99.90;;;;;;4994110;28;20054;-78
2021/07/18 04:05:54;;;;;;;21.42;12.55;;;17.10;99.90;;;;;;4994738;28;20047;-78
2021/07/18 04:08:20;;;;;;;14.88;8.48;;;17.20;99.90;;;;;;4994508;28;20050;-83
2021/07/18 04:10:47;;;;;;;26.10;14.55;;;17.20;99.90;;;;;;4994620;28;20097;-82
2021/07/18 04:13:15;;;;;;;31.35;18.33;;;17.20;99.90;;;;;;4994607;28;20120;-79
2021/07/18 04:15:41;;;;;;;24.60;14.80;;;17.30;99.90;;;;;;4994684;28;20078;-76
2021/07/18 04:18:09;;;;;;;16.52;9.93;;;17.40;99.90;;;;;;4977365;28;20073;-77
2021/07/18 04:20:36;;;;;;;9.55;6.18;;;17.50;99.90;;;;;;4993076;28;20050;-76
2021/07/18 04:23:03;;;;;;;34.70;22.27;;;17.60;99.90;;;;;;4992530;28;20046;-76
2021/07/18 04:25:29;;;;;;;32.30;16.40;;;17.60;99.90;;;;;;4992523;28;20101;-75
2021/07/18 04:27:56;;;;;;;17.20;10.93;;;17.60;99.90;;;;;;4992870;28;20043;-77
2021/07/18 04:30:24;;;;;;;22.55;13.38;;;17.70;99.90;;;;;;4992945;28;20051;-78
2021/07/18 04:32:51;;;;;;;19.38;8.77;;;17.80;99.90;;;;;;4995677;28;20046;-76
2021/07/18 04:35:18;;;;;;;9.10;6.30;;;17.90;99.90;;;;;;4993153;28;20050;-76
2021/07/18 04:37:44;;;;;;;18.38;10.85;;;17.90;99.90;;;;;;4994153;28;20117;-76
2021/07/18 04:40:12;;;;;;;11.43;5.75;;;18.00;99.90;;;;;;4995491;28;20069;-77
2021/07/18 04:42:39;;;;;;;8.35;5.20;;;18.00;99.90;;;;;;4996841;28;20046;-78
2021/07/18 04:45:06;;;;;;;4.80;2.53;;;18.10;99.90;;;;;;4999953;28;20046;-82
2021/07/18 04:47:43;;;;;;;4.18;2.67;;;18.20;99.90;;;;;;4998042;28;20046;-77
2021/07/18 04:50:10;;;;;;;5.95;3.85;;;18.30;99.90;;;;;;4996567;28;20060;-78
2021/07/18 04:52:37;;;;;;;10.65;5.65;;;18.30;99.90;;;;;;4997269;28;20046;-77
2021/07/18 04:55:05;;;;;;;9.25;5.13;;;18.30;99.90;;;;;;4997431;28;20050;-78
2021/07/18 04:57:31;;;;;;;6.60;2.85;;;18.40;99.90;;;;;;4983708;28;20054;-77
2021/07/18 04:59:58;;;;;;;7.25;3.33;;;18.50;99.90;;;;;;4997820;28;20050;-79
2021/07/18 05:02:25;;;;;;;3.20;2.28;;;18.60;99.90;;;;;;4999154;28;20313;-79
2021/07/18 05:04:54;;;;;;;6.40;3.17;;;18.70;99.90;;;;;;4996642;28;20101;-79
2021/07/18 05:07:20;;;;;;;7.07;2.83;;;18.80;99.90;;;;;;4997225;28;20046;-77
2021/07/18 05:09:47;;;;;;;4.05;2.28;;;18.80;99.90;;;;;;5000868;28;20057;-77
2021/07/18 05:12:13;;;;;;;9.43;2.80;;;18.90;99.90;;;;;;4997926;28;20093;-78
2021/07/18 05:14:41;;;;;;;2.80;2.28;;;19.00;99.90;;;;;;4997630;28;20109;-77
2021/07/18 05:17:08;;;;;;;5.20;2.90;;;19.10;99.90;;;;;;4996097;28;20049;-77
2021/07/18 05:19:35;;;;;;;5.32;2.72;;;19.20;99.90;;;;;;4994834;28;20054;-77
2021/07/18 05:22:03;;;;;;;5.38;2.00;;;19.30;99.90;;;;;;4995639;28;20101;-77
2021/07/18 05:24:29;;;;;;;5.30;2.40;;;19.30;99.90;;;;;;4995479;28;20046;-77
2021/07/18 05:26:56;;;;;;;6.57;3.03;;;19.40;99.90;;;;;;4995642;28;20117;-76
2021/07/18 05:29:23;;;;;;;2.65;2.22;;;19.40;99.90;;;;;;4994911;28;20070;-75
2021/07/18 05:31:50;;;;;;;3.55;2.08;;;19.50;99.90;;;;;;4995541;28;20050;-76
2021/07/18 05:34:17;;;;;;;7.78;2.70;;;19.60;99.90;;;;;;4994745;28;20494;-77
2021/07/18 05:36:44;;;;;;;3.05;2.17;;;19.60;99.90;;;;;;4994610;28;20046;-75
2021/07/18 05:39:11;;;;;;;4.88;2.78;;;19.80;99.90;;;;;;4993655;28;20047;-75
2021/07/18 05:41:38;;;;;;;3.80;2.25;;;19.80;99.90;;;;;;4994398;28;20487;-77
2021/07/18 05:44:05;;;;;;;3.00;2.00;;;19.90;99.90;;;;;;4995616;28;20103;-79
2021/07/18 05:46:32;;;;;;;2.30;2.10;;;20.00;99.90;;;;;;5001372;28;20093;-80
2021/07/18 05:48:58;;;;;;;3.35;2.33;;;20.10;99.90;;;;;;4999057;28;20054;-79
2021/07/18 05:51:25;;;;;;;2.25;1.67;;;20.10;99.90;;;;;;5001413;28;20101;-84
2021/07/18 05:53:52;;;;;;;4.55;2.63;;;20.20;99.90;;;;;;5004032;28;20054;-80
2021/07/18 05:56:20;;;;;;;6.43;2.38;;;20.30;99.90;;;;;;5004197;28;20046;-79
2021/07/18 05:58:46;;;;;;;4.20;1.80;;;20.40;99.90;;;;;;5000269;28;20242;-80
2021/07/18 06:01:14;;;;;;;3.72;1.63;;;20.50;99.90;;;;;;4998053;28;20491;-76
2021/07/18 06:03:40;;;;;;;3.70;1.75;;;20.60;99.90;;;;;;4995841;28;20465;-77
2021/07/18 06:06:07;;;;;;;4.85;2.20;;;20.80;99.90;;;;;;4997062;28;20054;-77
2021/07/18 06:08:34;;;;;;;3.05;1.80;;;21.00;99.90;;;;;;4996616;28;20269;-77
2021/07/18 06:11:00;;;;;;;5.22;2.00;;;21.00;99.90;;;;;;4998298;28;20039;-79
2021/07/18 06:13:28;;;;;;;4.53;2.15;;;21.10;99.90;;;;;;5000150;28;20109;-82
2021/07/18 06:15:57;;;;;;;6.68;1.92;;;21.40;99.90;;;;;;5002614;28;20050;-79
2021/07/18 06:18:24;;;;;;;5.53;2.13;;;21.70;99.90;;;;;;5006245;28;20050;-79
2021/07/18 06:20:51;;;;;;;4.30;2.63;;;22.00;99.90;;;;;;5003101;28;20046;-78
2021/07/18 06:23:17;;;;;;;4.07;2.20;;;22.10;99.90;;;;;;5000283;28;20046;-81
2021/07/18 06:25:44;;;;;;;3.85;2.20;;;22.30;99.90;;;;;;5002445;28;20050;-79
2021/07/18 06:28:11;;;;;;;3.13;2.00;;;22.50;99.90;;;;;;5001389;28;20050;-81
2021/07/18 06:30:40;;;;;;;6.32;1.80;;;22.60;99.90;;;;;;5003785;28;20073;-82
2021/07/18 06:33:06;;;;;;;4.85;2.17;;;22.60;99.90;;;;;;5002036;28;20050;-79
2021/07/18 06:35:33;;;;;;;2.15;1.60;;;22.70;99.90;;;;;;5007268;28;20081;-82
2021/07/18 06:38:01;;;;;;;3.58;1.73;;;22.90;99.90;;;;;;5003561;28;20054;-81
2021/07/18 06:40:27;;;;;;;1.63;1.52;;;23.20;99.90;;;;;;5004264;28;20060;-76
2021/07/18 06:42:54;;;;;;;3.17;1.58;;;23.40;99.90;;;;;;4995921;28;20042;-77
2021/07/18 06:45:20;;;;;;;1.88;1.65;;;23.50;99.90;;;;;;4995068;28;20439;-70
2021/07/18 06:47:48;;;;;;;4.43;1.75;;;23.70;99.90;;;;;;4992515;28;20042;-74
2021/07/18 06:50:16;;;;;;;3.30;1.30;;;23.80;99.90;;;;;;4992751;28;20643;-75
2021/07/18 06:52:43;;;;;;;2.08;1.60;;;24.00;99.90;;;;;;4989660;28;20466;-72
2021/07/18 06:55:10;;;;;;;2.95;1.50;;;24.20;99.90;;;;;;4993625;28;20462;-70
2021/07/18 06:57:37;;;;;;;3.50;2.03;;;24.20;99.90;;;;;;4992806;28;20050;-71
2021/07/18 07:00:06;;;;;;;2.47;1.25;;;24.70;99.90;;;;;;4991970;28;20054;-72
2021/07/18 07:02:33;;;;;;;2.13;1.20;;;25.20;99.90;;;;;;4995650;28;20042;-73
2021/07/18 07:05:01;;;;;;;5.13;3.08;;;25.40;99.90;;;;;;4992721;28;20487;-72
2021/07/18 07:07:28;;;;;;;2.65;2.40;;;25.60;99.90;;;;;;4992426;28;20112;-74
2021/07/18 07:09:54;;;;;;;3.90;2.45;;;25.80;99.90;;;;;;4992464;28;20038;-73
2021/07/18 07:12:21;;;;;;;4.82;2.47;;;26.10;99.90;;;;;;4992475;28;20058;-70
2021/07/18 07:14:47;;;;;;;3.22;1.63;;;26.20;99.90;;;;;;4993167;28;20070;-69
2021/07/18 07:17:14;;;;;;;2.40;1.70;;;26.50;99.90;;;;;;4992215;28;20341;-73
2021/07/18 07:19:41;;;;;;;2.72;2.53;;;26.50;99.90;;;;;;4991862;28;20054;-71
2021/07/18 07:22:09;;;;;;;2.42;1.60;;;26.40;99.90;;;;;;4992181;28;20050;-72
2021/07/18 07:24:36;;;;;;;5.90;2.10;;;26.60;99.90;;;;;;4992166;28;20046;-71
2021/07/18 07:27:02;;;;;;;3.53;1.63;;;26.70;99.90;;;;;;4991913;28;20042;-71
2021/07/18 07:29:29;;;;;;;2.30;1.80;;;26.90;99.90;;;;;;4992339;28;20096;-75
2021/07/18 07:31:56;;;;;;;3.65;1.80;;;26.70;99.90;;;;;;4993462;28;20042;-74
2021/07/18 07:34:23;;;;;;;2.78;1.40;;;26.60;99.90;;;;;;4993197;28;20090;-73
2021/07/18 07:36:49;;;;;;;2.10;2.00;;;26.90;99.90;;;;;;4992388;28;20073;-74
2021/07/18 07:39:17;;;;;;;3.88;2.40;;;26.90;99.90;;;;;;4991859;28;20100;-73
2021/07/18 07:41:44;;;;;;;4.30;2.65;;;27.20;99.90;;;;;;4991837;28;20487;-72
2021/07/18 07:44:10;;;;;;;6.95;4.68;;;27.40;99.60;;;;;;4992357;28;20042;-72
2021/07/18 07:46:37;;;;;;;2.83;2.15;;;27.30;99.90;;;;;;4992015;28;20038;-69
2021/07/18 07:49:05;;;;;;;1.80;1.65;;;27.50;99.90;;;;;;4991605;28;20049;-71
2021/07/18 07:51:32;;;;;;;4.45;1.90;;;27.90;98.80;;;;;;4992106;28;20050;-69
2021/07/18 07:53:59;;;;;;;2.42;1.90;;;28.20;97.00;;;;;;4992287;28;20057;-70
2021/07/18 07:56:27;;;;;;;4.65;3.05;;;28.00;96.50;;;;;;4992411;28;20046;-70
2021/07/18 07:58:54;;;;;;;3.00;2.35;;;27.90;96.30;;;;;;4991693;28;20490;-76
2021/07/18 08:01:20;;;;;;;2.63;1.92;;;27.70;96.40;;;;;;4992075;28;20498;-72
2021/07/18 08:03:47;;;;;;;4.47;3.00;;;27.80;96.80;;;;;;4992487;28;20046;-76
2021/07/18 08:06:14;;;;;;;4.88;2.72;;;27.80;96.30;;;;;;4994390;28;20105;-74
2021/07/18 08:08:40;;;;;;;2.55;1.92;;;28.10;95.70;;;;;;4991954;28;20054;-75
2021/07/18 08:11:08;;;;;;;4.53;1.98;;;28.30;95.80;;;;;;4992631;28;20046;-79
2021/07/18 08:13:37;;;;;;;3.50;2.40;;;28.90;95.50;;;;;;4997550;28;20074;-79
2021/07/18 08:16:04;;;;;;;3.47;2.13;;;28.90;93.70;;;;;;4997297;28;20154;-77
2021/07/18 08:18:31;;;;;;;1.77;1.20;;;29.00;94.20;;;;;;5000274;28;20100;-74
2021/07/18 08:20:57;;;;;;;1.80;1.55;;;29.30;91.70;;;;;;4997091;28;20051;-71
2021/07/18 08:23:24;;;;;;;3.72;2.55;;;29.20;93.10;;;;;;4994409;28;20487;-75
2021/07/18 08:25:51;;;;;;;3.80;2.83;;;29.70;92.40;;;;;;4995253;28;20458;-76
2021/07/18 08:28:18;;;;;;;3.08;2.58;;;30.20;90.80;;;;;;4994689;28;20518;-74
2021/07/18 08:30:46;;;;;;;2.42;1.52;;;30.70;88.30;;;;;;4994759;28;20553;-74
2021/07/18 08:33:12;;;;;;;2.83;2.13;;;30.60;89.30;;;;;;4995487;28;20117;-74
2021/07/18 08:35:39;;;;;;;5.47;4.35;;;30.60;86.60;;;;;;4995119;28;20038;-79
2021/07/18 08:38:05;;;;;;;3.35;2.20;;;30.50;86.90;;;;;;4995965;28;20113;-75
2021/07/18 08:40:34;;;;;;;4.57;3.33;;;30.90;88.40;;;;;;4994748;28;20557;-77
2021/07/18 08:43:01;;;;;;;3.92;2.58;;;31.20;85.40;;;;;;4995335;28;20046;-73
2021/07/18 08:45:28;;;;;;;1.60;1.50;;;31.40;83.70;;;;;;4995394;28;20453;-78
2021/07/18 08:47:56;;;;;;;5.57;2.40;;;31.60;81.50;;;;;;4995878;28;20549;-70
2021/07/18 08:50:23;;;;;;;3.55;2.42;;;31.50;80.50;;;;;;4995665;28;20050;-76
2021/07/18 08:52:52;;;;;;;2.70;1.20;;;31.70;78.40;;;;;;4995346;28;20046;-72
2021/07/18 08:55:19;;;;;;;2.25;1.60;;;31.50;80.70;;;;;;4995042;28;20511;-71
2021/07/18 08:57:46;;;;;;;3.03;1.90;;;31.50;77.00;;;;;;4995023;28;20049;-72
2021/07/18 09:00:14;;;;;;;2.67;1.92;;;31.80;77.10;;;;;;4993936;28;20128;-72
2021/07/18 09:02:42;;;;;;;2.65;2.05;;;32.10;76.00;;;;;;4994747;28;20046;-71
2021/07/18 09:05:11;;;;;;;2.05;1.52;;;32.70;73.90;;;;;;4995271;28;20047;-72
2021/07/18 09:07:46;;;;;;;2.42;1.80;;;32.40;74.70;;;;;;4994903;28;20515;-71
2021/07/18 09:10:13;;;;;;;6.45;3.45;;;32.60;72.00;;;;;;4994264;28;20117;-71
2021/07/18 09:12:40;;;;;;;4.57;3.58;;;32.20;72.90;;;;;;4994540;28;20419;-71
2021/07/18 09:15:08;;;;;;;3.47;3.15;;;32.30;73.00;;;;;;4994644;28;20105;-71
2021/07/18 09:17:36;;;;;;;6.15;4.13;;;32.80;70.10;;;;;;4994735;28;20494;-71
2021/07/18 09:20:14;;;;;;;5.70;2.35;;;33.10;70.10;;;;;;4994164;28;20050;-71
2021/07/18 09:22:41;;;;;;;2.97;2.40;;;33.50;67.10;;;;;;4993964;28;20050;-71
2021/07/18 09:25:08;;;;;;;2.55;1.83;;;33.60;68.90;;;;;;4994454;28;20182;-71
2021/07/18 09:27:35;;;;;;;3.30;3.00;;;33.40;66.30;;;;;;4994271;28;20388;-72
2021/07/18 09:30:06;;;;;;;5.50;3.88;;;33.80;66.60;;;;;;4994120;28;20054;-71
2021/07/18 09:32:35;;;;;;;1.58;1.48;;;33.50;66.50;;;;;;4994289;28;20109;-72
2021/07/18 09:35:04;;;;;;;3.83;2.92;;;32.90;63.20;;;;;;4994630;28;20137;-70
2021/07/18 09:37:34;;;;;;;3.87;2.60;;;33.70;67.00;;;;;;4993919;28;20050;-71
2021/07/18 09:40:04;;;;;;;2.50;1.50;;;34.00;63.70;;;;;;4993586;28;20054;-71
2021/07/18 09:42:37;;;;;;;2.97;1.60;;;34.20;63.40;;;;;;4994338;28;20082;-70
2021/07/18 09:45:08;;;;;;;2.90;2.30;;;34.00;64.00;;;;;;4994573;28;20052;-71
2021/07/18 09:47:51;;;;;;;4.25;1.48;;;33.50;65.80;;;;;;4994195;28;20062;-71
2021/07/18 09:50:18;;;;;;;2.30;2.15;;;33.70;63.30;;;;;;4993866;28;20100;-71
2021/07/18 09:52:48;;;;;;;2.30;1.90;;;33.50;64.70;;;;;;4993812;28;20073;-71
2021/07/18 09:55:21;;;;;;;3.80;2.33;;;33.80;63.00;;;;;;4994211;28;20449;-71
2021/07/18 09:57:52;;;;;;;4.65;1.65;;;34.30;64.00;;;;;;4995339;28;20470;-70
2021/07/18 10:00:19;;;;;;;;;;;34.40;62.80;;;;;;4994087;28;20050;-70
2021/07/18 10:02:46;;;;;;;2.55;2.35;;;34.70;63.30;;;;;;4994231;28;19991;-71
2021/07/18 10:05:17;;;;;;;2.10;1.70;;;34.30;60.70;;;;;;4993913;28;20101;-71
2021/07/18 10:07:44;;;;;;;7.47;4.53;;;34.60;60.70;;;;;;4993630;28;20088;-70
2021/07/18 10:10:12;;;;;;;3.65;3.00;;;34.80;61.10;;;;;;4993295;28;20050;-70
2021/07/18 10:12:39;;;;;;;3.30;1.23;;;35.00;61.30;;;;;;4993707;28;20494;-72
2021/07/18 10:15:07;;;;;;;3.22;2.03;;;34.70;59.50;;;;;;4994038;28;20093;-72
2021/07/18 10:17:33;;;;;;;1.83;1.23;;;34.40;59.10;;;;;;4993633;28;20097;-72
2021/07/18 10:20:00;;;;;;;1.73;1.58;;;34.50;60.10;;;;;;4993387;28;20051;-72
2021/07/18 10:22:28;;;;;;;2.42;1.20;;;34.50;62.30;;;;;;4993334;28;20047;-72
2021/07/18 10:24:56;;;;;;;2.22;1.35;;;34.40;60.70;;;;;;4994396;28;20105;-72
2021/07/18 10:27:24;;;;;;;2.00;0.95;;;34.20;61.00;;;;;;4993520;28;20082;-71
2021/07/18 10:29:53;;;;;;;2.05;1.25;;;33.80;60.20;;;;;;4995189;28;20177;-71
2021/07/18 10:32:22;;;;;;;2.08;1.55;;;34.20;60.90;;;;;;4992952;28;20046;-73
2021/07/18 10:34:53;;;;;;;5.28;2.67;;;34.10;62.00;;;;;;4993323;28;20109;-71
2021/07/18 10:37:20;;;;;;;1.40;1.02;;;34.50;62.50;;;;;;4993975;28;20073;-72
2021/07/18 10:39:46;;;;;;;3.30;1.80;;;34.40;61.30;;;;;;4993839;28;20473;-71
2021/07/18 10:42:16;;;;;;;2.10;1.25;;;34.50;60.60;;;;;;4994588;28;20027;-73
2021/07/18 10:44:47;;;;;;;1.48;1.38;;;34.80;57.90;;;;;;4994814;28;20046;-70
2021/07/18 10:47:15;;;;;;;2.03;1.55;;;33.90;59.30;;;;;;4993428;28;20054;-71
2021/07/18 10:49:56;;;;;;;1.58;0.95;;;32.70;63.50;;;;;;4992244;28;20100;-70
2021/07/18 10:52:24;;;;;;;2.00;1.30;;;32.30;65.60;;;;;;4992825;28;20046;-71
2021/07/18 10:54:51;;;;;;;3.10;1.58;;;32.80;65.30;;;;;;4992530;28;20410;-70
2021/07/18 10:57:24;;;;;;;1.80;1.70;;;32.40;64.00;;;;;;4993301;28;20495;-71
2021/07/18 10:59:52;;;;;;;3.83;2.95;;;32.80;65.50;;;;;;4993045;28;20392;-72
2021/07/18 11:02:21;;;;;;;1.98;1.75;;;33.30;64.40;;;;;;4995756;28;20142;-72
2021/07/18 11:04:48;;;;;;;2.97;2.03;;;32.40;65.20;;;;;;4993208;28;20046;-72
2021/07/18 11:07:28;;;;;;;3.40;2.03;;;32.50;66.80;;;;;;4991897;28;20046;-71
2021/07/18 11:09:56;;;;;;;4.00;2.50;;;33.70;63.00;;;;;;4992381;28;20047;-71
2021/07/18 11:12:25;;;;;;;3.45;1.83;;;34.20;61.80;;;;;;4993257;28;20426;-71
2021/07/18 11:14:53;;;;;;;2.72;1.60;;;33.80;59.90;;;;;;4992925;28;20494;-71
2021/07/18 11:17:27;;;;;;;4.65;4.20;;;33.40;61.70;;;;;;4992751;28;20050;-73
2021/07/18 11:20:01;;;;;;;1.95;1.80;;;34.50;62.40;;;;;;4991582;28;20054;-71
2021/07/18 11:22:58;;;;;;;5.07;2.35;;;34.70;60.10;;;;;;4992903;28;20069;-71
2021/07/18 11:25:42;;;;;;;2.45;2.10;;;35.10;60.70;;;;;;4993019;28;20116;-71
2021/07/18 11:28:49;;;;;;;3.22;3.00;;;35.30;56.60;;;;;;4989859;28;20050;-72
2021/07/18 11:31:26;;;;;;;2.67;1.60;;;34.60;58.10;;;;;;4982684;28;20050;-70
2021/07/18 11:33:55;;;;;;;5.05;3.03;;;34.80;59.70;;;;;;4992342;28;20104;-70
2021/07/18 11:36:24;;;;;;;3.92;1.70;;;35.40;59.50;;;;;;4992174;28;20516;-70
2021/07/18 11:38:51;;;;;;;2.90;1.42;;;36.10;57.20;;;;;;4991955;28;20498;-71
2021/07/18 11:41:19;;;;;;;2.25;1.40;;;35.70;57.10;;;;;;4992625;28;20458;-71
2021/07/18 11:43:47;;;;;;;4.05;3.53;;;35.40;54.80;;;;;;4992587;28;20392;-72
2021/07/18 11:46:14;;;;;;;2.38;1.33;;;35.30;57.80;;;;;;4992206;28;20047;-71
2021/07/18 11:48:43;;;;;;;3.80;2.63;;;35.10;57.50;;;;;;4991819;28;20109;-72
2021/07/18 11:51:13;;;;;;;2.15;1.90;;;35.20;59.10;;;;;;4992122;28;20047;-71
2021/07/18 11:53:45;;;;;;;3.33;2.17;;;35.00;58.10;;;;;;4997115;28;20050;-73
2021/07/18 11:56:20;;;;;;;2.00;0.98;;;35.60;58.70;;;;;;4995583;28;20034;-71
2021/07/18 11:58:46;;;;;;;1.80;1.50;;;35.50;56.40;;;;;;4991805;28;20105;-71
2021/07/18 12:01:13;;;;;;;3.75;2.60;;;35.90;57.00;;;;;;4992117;28;20046;-70
2021/07/18 12:03:40;;;;;;;1.65;1.55;;;36.20;56.30;;;;;;4992205;28;20410;-71
2021/07/18 12:06:08;;;;;;;2.58;1.55;;;35.90;55.00;;;;;;4992412;28;20046;-72
2021/07/18 12:08:35;;;;;;;2.33;1.80;;;34.70;56.20;;;;;;4991910;28;20046;-71
2021/07/18 12:11:03;;;;;;;4.25;2.13;;;33.60;58.90;;;;;;4992452;28;20046;-70
2021/07/18 12:13:37;;;;;;;3.03;1.90;;;32.70;63.70;;;;;;4992150;28;20422;-71
2021/07/18 12:16:05;;;;;;;1.73;1.63;;;32.60;62.00;;;;;;4991719;28;20128;-72
2021/07/18 12:18:32;;;;;;;1.25;1.15;;;33.40;59.10;;;;;;4991230;28;20097;-71
2021/07/18 12:21:19;;;;;;;1.65;0.95;;;33.20;58.30;;;;;;4992115;28;20193;-70
2021/07/18 12:23:46;;;;;;;6.43;1.80;;;32.90;61.00;;;;;;4992436;28;20046;-72
2021/07/18 12:26:12;;;;;;;1.83;1.08;;;32.30;61.10;;;;;;4992434;28;20116;-69
2021/07/18 12:28:39;;;;;;;3.38;1.88;;;31.90;61.40;;;;;;4991123;28;20042;-70
2021/07/18 12:31:06;;;;;;;2.92;1.17;;;31.90;63.10;;;;;;4991805;28;20054;-71
2021/07/18 12:33:34;;;;;;;4.40;3.08;;;31.30;65.70;;;;;;4992214;28;20050;-71
2021/07/18 12:36:02;;;;;;;2.35;2.05;;;31.50;66.30;;;;;;4991976;28;20042;-71
2021/07/18 12:38:31;;;;;;;3.67;1.95;;;31.50;65.50;;;;;;4991709;28;20054;-71
2021/07/18 12:41:02;;;;;;;1.98;1.50;;;31.20;64.30;;;;;;4991782;28;20077;-71
2021/07/18 12:43:29;;;;;;;1.52;1.08;;;30.60;65.90;;;;;;4991397;28;20097;-71
2021/07/18 12:45:56;;;;;;;9.20;6.45;;;29.80;68.00;;;;;;4991529;28;20050;-70
2021/07/18 12:48:26;;;;;;;1.60;1.50;;;29.80;69.90;;;;;;4991225;28;20046;-71
2021/07/18 12:50:52;;;;;;;3.60;1.80;;;30.30;69.10;;;;;;4992000;28;20093;-71
2021/07/18 12:53:21;;;;;;;2.55;1.73;;;30.40;66.60;;;;;;4991599;28;20290;-70
2021/07/18 12:55:57;;;;;;;2.90;2.63;;;30.20;67.10;;;;;;4991825;28;20097;-70